createdAt,value
2022-09-20T08:31:06.230Z,13.27
2022-09-20T08:33:37.187Z,13.35
2022-09-20T08:36:07.179Z,13.19
2022-09-20T08:41:32.213Z,13.16
2022-09-20T08:44:06.955Z,13.23
2022-09-20T08:46:44.715Z,13.37
2022-09-20T08:52:20.552Z,14.12
2022-09-20T08:54:49.275Z,14.68
2022-09-20T08:57:21.827Z,14.74
2022-09-20T08:59:50.611Z,14.94
2022-09-20T09:02:23.105Z,14.52
2022-09-20T09:04:53.763Z,14.15
2022-09-20T09:07:26.182Z,14.22
2022-09-20T09:09:57.290Z,14.27
2022-09-20T09:12:31.019Z,14.15
2022-09-20T09:15:06.099Z,14.39
2022-09-20T09:17:37.025Z,14.62
2022-09-20T09:20:18.456Z,15.00
2022-09-20T09:22:49.005Z,15.09
2022-09-20T09:25:27.912Z,15.00
2022-09-20T09:27:59.251Z,15.02
2022-09-20T09:30:31.379Z,15.18
2022-09-20T09:33:47.045Z,15.19
2022-09-20T09:36:22.659Z,14.73
2022-09-20T09:38:51.682Z,14.14
2022-09-20T09:52:14.725Z,14.56
2022-09-20T09:54:50.570Z,14.80
2022-09-20T10:08:24.278Z,14.58
2022-09-20T10:11:15.569Z,14.76
2022-09-20T10:14:03.582Z,15.24
2022-09-20T10:17:01.226Z,15.85
2022-09-20T10:20:11.032Z,16.04
2022-09-20T10:23:45.199Z,16.21
2022-09-20T10:26:33.151Z,16.80
2022-09-20T10:29:45.640Z,16.54
2022-09-20T10:32:46.650Z,16.13
2022-09-20T10:35:30.357Z,16.02
2022-09-20T10:38:15.862Z,15.67
2022-09-20T10:41:27.061Z,16.10
2022-09-20T10:44:23.422Z,16.63
2022-09-20T10:47:06.832Z,16.78
2022-09-20T10:49:47.228Z,17.56
2022-09-20T10:52:43.420Z,17.71
2022-09-20T10:55:32.960Z,18.01
2022-09-20T10:58:35.839Z,18.90
2022-09-20T11:01:21.600Z,19.76
2022-09-20T11:04:14.417Z,20.02
2022-09-20T11:06:57.281Z,20.17
2022-09-20T11:09:37.053Z,19.79
2022-09-20T11:12:18.919Z,19.43
2022-09-20T11:14:55.550Z,19.46
2022-09-20T11:17:33.904Z,18.39
2022-09-20T11:20:16.853Z,17.72
2022-09-20T11:22:53.783Z,16.82
2022-09-20T11:25:34.358Z,16.46
2022-09-20T11:28:12.589Z,16.88
2022-09-20T11:30:56.025Z,17.06
2022-09-20T11:45:28.712Z,16.98
2022-09-20T11:48:05.302Z,16.60
2022-09-20T11:51:27.452Z,15.69
2022-09-20T11:54:48.952Z,14.49
2022-09-20T11:57:39.812Z,13.69
2022-09-20T12:00:10.401Z,13.39
2022-09-20T12:02:55.432Z,13.24
2022-09-20T12:05:33.640Z,12.98
2022-09-20T12:08:07.080Z,12.92
2022-09-20T12:10:41.223Z,13.08
2022-09-20T12:13:25.621Z,13.18
2022-09-20T12:16:03.787Z,13.75
2022-09-20T12:19:08.019Z,14.42
2022-09-20T12:22:18.269Z,15.04
2022-09-20T12:25:26.287Z,15.82
2022-09-20T12:27:59.332Z,16.48
2022-09-20T23:12:14.834Z,7.07
2022-09-20T23:14:44.244Z,7.21
2022-09-20T23:17:13.259Z,7.14
2022-09-20T23:19:42.274Z,7.10
2022-09-20T23:22:35.529Z,7.04
2022-09-20T23:25:04.290Z,7.00
2022-09-20T23:27:34.279Z,6.90
2022-09-20T23:30:03.083Z,6.44
2022-09-20T23:32:31.804Z,6.44
2022-09-20T23:35:00.624Z,6.64
2022-09-20T23:37:29.335Z,6.66
2022-09-20T23:39:58.696Z,6.70
2022-09-20T23:42:27.295Z,6.66
2022-09-20T23:44:57.602Z,6.40
2022-09-20T23:47:26.371Z,6.30
2022-09-20T23:49:55.988Z,6.54
2022-09-20T23:52:24.957Z,6.60
2022-09-20T23:54:53.720Z,6.66
2022-09-20T23:57:24.941Z,6.73
